Wheat Ridge, CO (80034)

6:33 AM MST on February 13, 2016 (GMT -0700)
Crown Hill Park | | Change Station
CLOSE
Current Station
Personal Weather Station
Location: Wheat Ridge, CO
Elevation: 5480 ft
Nearby Weather Stations
Active Advisory: Dense Fog Advisory Active Notice: Public Information Statement

Elev 5480 ft 39.77 °N, 105.10 °W | Updated 2 minutes ago

Fog
Fog
28.1 °F
Feels Like 28 °F
N
0.0
Wind Variable Wind from NW

Today
High -- | Low -- °F
--% Chance of Precip.
Yesterday
High -- | Low -- °F
Precip. -- in
Pressure 30.09 in
Visibility 0.2 miles
Clouds Overcast 100 ft
Windchill 28 °F
Dew Point 27 °F
Humidity 95%
Rainfall 0.00 in
Snow Depth Not available.
6:55 AM 5:33 PM
Waxing Crescent, 30% visible
METAR KBJC 131156Z AUTO 00000KT M1/4SM FZFG OVC001 M01/M01 A3009 RMK AO2
Pressure 30.09 in
Visibility 0.2 miles
Clouds Overcast 100 ft
Windchill 28 °F
Dew Point 27 °F
Humidity 95%
Rainfall 0.00 in
Snow Depth Not available.
6:55 AM 5:33 PM
Waxing Crescent, 30% visible
METAR KBJC 131156Z AUTO 00000KT M1/4SM FZFG OVC001 M01/M01 A3009 RMK AO2

10-Day Weather Forecast

Almanac

Astronomy

Feb. 13, 2016 Rise Set
Actual Time
Civil Twilight
Nautical Twilight
Astronomical Twilight
Moon
Length of Visible Light
Length of Day
Tomorrow will be .
, % of the Moon is Illuminated

Today's Extremes

State Highs State Lows

Community

WunderPhotos

Upload Photos

1,892,547 photos uploaded!

WunderBlog® & News

Nearby

Air Quality

  Air Quality AQ Index Pollutant
Not available.

Snow Depth

Station Depth Elevation

Earthquake Activity

City Distance Mag. Time & Date
Minimum magnitude displayed is 2.5.

Coastal Water Temperatures

Place Temperature

Stations

Nearby Weather Stations

Station Location Temp. Windchill Dew Point Humidity Wind Precip. Elev Updated Type
                   

Watches & Warnings

Dense Fog Advisory
Issued: 4:17 AM MST Feb. 13, 2016 – National Weather Service

... Dense fog advisory in effect until 9 am MST this morning...

The National Weather Service in Denver has issued a dense fog
advisory... which is in effect until 9 am MST this morning.

* Visibility... less than a quarter mile between Fort Collins and Denver
and from the foothills eastward to Highway 85... including
Interstate 25.

* Impacts... travelers will need to drive much slower... use low
beam headlights and exercise extreme caustion while driving in
the dense fog. Bridges and overpasses may also have icy
conditions.

Precautionary/preparedness actions...

A dense fog advisory means visibilities will frequently be
reduced to less than one quarter mile. If driving... slow down...
use your low beam headlights... and leave plenty of distance ahead
of you.